Trang, Thailand

8:47 AM ICT on February 07, 2016 (GMT +0700)
Trang | | Change Station
CLOSE
Current Station
Airport
Location: Trang,
Elevation: 52 ft
Nearby Weather Stations

Elev 52 ft 7.51 °N, 99.62 °E | Updated 47 minutes ago

Mostly Cloudy
Mostly Cloudy
79 °F
Feels Like 79 °F
N
12
Wind Variable Wind from NE

Today
High -- | Low -- °F
--% Chance of Precip.
Yesterday
High -- | Low -- °F
Precip. -- in
Pressure 29.83 in
Visibility 3.7 miles
Clouds Few 1800 ft
Mostly Cloudy 10000 ft
Mostly Cloudy 30000 ft
Dew Point 75 °F
Humidity 89%
Rainfall 0.00 in
Snow Depth Not available.
6:40 AM 6:30 PM
Waning Crescent, 3% visible
METAR VTST 070100Z 05010KT 6000 FEW018 BKN100 BKN300 26/24 Q1010 INFO B RWY08
Pressure 29.83 in
Visibility 3.7 miles
Clouds Few 1800 ft
Mostly Cloudy 10000 ft
Mostly Cloudy 30000 ft
Dew Point 75 °F
Humidity 89%
Rainfall 0.00 in
Snow Depth Not available.
6:40 AM 6:30 PM
Waning Crescent, 3% visible
METAR VTST 070100Z 05010KT 6000 FEW018 BKN100 BKN300 26/24 Q1010 INFO B RWY08

10-Day Weather Forecast

No radar image for this location.
×

Almanac

Astronomy

Feb. 07, 2016 Rise Set
Actual Time
Civil Twilight
Nautical Twilight
Astronomical Twilight
Moon
Length of Visible Light
Length of Day
Tomorrow will be .
, % of the Moon is Illuminated

Today's Extremes

Country Highs Country Lows

Community

WunderPhotos

Upload Photos

1,891,123 photos uploaded!

WunderBlog® & News

Nearby

Air Quality

  Air Quality AQ Index Pollutant
Not available.

Snow Depth

Station Depth Elevation

Earthquake Activity

City Distance Mag. Time & Date
Minimum magnitude displayed is 2.5.

Coastal Water Temperatures

Place Temperature

Stations

Nearby Weather Stations

Station Location Temp. Windchill Dew Point Humidity Wind Precip. Elev Updated Type